Nags Head, NC (27959)

8:24 PM EDT on August 31, 2015 (GMT -0400)
Wimble Shores | | Change Station
CLOSE
Current Station
Personal Weather Station
Location: Waves, NC
Elevation: 41 ft
Nearby Weather Stations

Elev 41 ft 35.57 °N, 75.47 °W | Updated 12 seconds ago

Mostly Cloudy
Mostly Cloudy
74.0 °F
Feels Like 72 °F
N
2.0
Wind Variable Wind from SSE
Gusts 6.0 mph

Today
High -- | Low -- °F
--% Chance of Precip.
Yesterday
High -- | Low -- °F
Precip. -- in
6:33 AM 7:30 PM
Waning Gibbous, 93% visible
Pressure 30.06 in
Visibility 10.0 miles
Clouds Few 9000 ft
Heat Index 72 °F
Dew Point 71 °F
Humidity 92%
Rainfall in
Snow Depth Not available.
UV 0 out of 12
Pollen 8.40 out of 12
Air Quality Not available.
Flu Activity Not available.
METAR KHSE 312351Z AUTO 18012KT 10SM FEW090 26/22 A3006 RMK AO2 SLP180 60015 T02560222 10256 20233 56009 TSNO
Pressure 30.06 in
Visibility 10.0 miles
Clouds Few 9000 ft
Heat Index 72 °F
Dew Point 71 °F
Humidity 92%
Rainfall in
Snow Depth Not available.
UV 0 out of 12
Pollen 8.40 out of 12
Air Quality Not available.
Flu Activity Not available.
METAR KHSE 312351Z AUTO 18012KT 10SM FEW090 26/22 A3006 RMK AO2 SLP180 60015 T02560222 10256 20233 56009 TSNO

10-Day Weather Forecast

×

Almanac

Astronomy

Aug. 31, 2015 Rise Set
Actual Time
Civil Twilight
Nautical Twilight
Astronomical Twilight
Moon
Length of Visible Light
Length of Day
Tomorrow will be .
, % of the Moon is Illuminated

Today's Extremes

State Highs State Lows

Community

WunderPhotos

Upload Photos

1,851,405 photos uploaded!

WunderBlogs® & News

Nearby

Air Quality

  Air Quality AQ Index Pollutant
Not available.

Snow Depth

Station Depth Elevation

Earthquake Activity

City Distance Mag. Time & Date
Minimum magnitude displayed is 2.5.

Coastal Water Temperatures

Place Temperature

Stations

Nearby Weather Stations

Station Location Temp. Windchill Dew Point Humidity Wind Precip. Elev Updated Type